Time;durP1;ratioP1;P1;durP2;ratioP2;P2;SDS_P1;SDS_P2;PMS_P1;PMS_P2;Temp;Humidity;BMP_temperature;BMP_pressure;BME280_temperature;BME280_humidity;BME280_pressure;Samples;Min_cycle;Max_cycle;Signal;HPM_P1;HPM_P2
2022/12/22 03:27:23;;;;;;;;;;;;;;;12.46;nan;100686.13;5018506;28;20396;-34
2022/12/22 03:29:48;;;;;;;;;;;;;;;12.49;nan;100677.53;5023522;28;19948;-35
2022/12/22 03:32:14;;;;;;;;;;;;;;;12.47;nan;100672.44;5021979;28;20014;-35
2022/12/22 03:34:39;;;;;;;;;;;;;;;12.46;nan;100675.38;5028506;28;19917;-35
2022/12/22 03:37:04;;;;;;;;;;;;;;;12.47;nan;100675.13;5025348;28;19924;-36
2022/12/22 03:39:30;;;;;;;;;;;;;;;12.52;nan;100674.31;5024453;28;19928;-35
2022/12/22 03:47:23;;;;;;;;;;;;;;;12.61;nan;100672.75;5021631;28;19928;-35
2022/12/22 03:49:48;;;;;;;;;;;;;;;12.63;nan;100676.00;5026975;28;20165;-35
2022/12/22 03:52:13;;;;;;;;;;;;;;;12.66;nan;100675.47;5024314;28;20026;-35
2022/12/22 03:54:39;;;;;;;;;;;;;;;12.70;nan;100687.31;5022154;28;19917;-35
2022/12/22 03:57:04;;;;;;;;;;;;;;;12.74;nan;100674.13;5024699;28;19940;-36
2022/12/22 03:59:29;;;;;;;;;;;;;;;12.75;nan;100673.91;5023038;28;20281;-35
2022/12/22 04:01:55;;;;;;;;;;;;;;;12.77;nan;100671.75;5026161;28;19952;-35
2022/12/22 04:04:22;;;;;;;;;;;;;;;12.76;nan;100670.13;5024531;28;19959;-35
2022/12/22 04:06:47;;;;;;;;;;;;;;;12.74;nan;100666.06;5020384;28;19921;-35
2022/12/22 04:09:13;;;;;;;;;;;;;;;12.71;nan;100662.03;5019929;28;20378;-35
2022/12/22 04:14:36;;;;;;;;;;;;;;;12.68;nan;100663.38;5017435;28;19979;-35
2022/12/22 04:17:03;;;;;;;;;;;;;;;12.70;nan;100655.84;5025797;28;19956;-35
2022/12/22 04:19:28;;;;;;;;;;;;;;;12.70;nan;100649.66;5023825;28;19922;-35
2022/12/22 04:21:53;;;;;;;;;;;;;;;12.70;nan;100646.97;5026499;28;19925;-35
2022/12/22 04:24:19;;;;;;;;;;;;;;;12.72;nan;100647.53;5023968;28;20543;-35
2022/12/22 04:26:44;;;;;;;;;;;;;;;12.73;nan;100642.94;5028114;28;20317;-35
2022/12/22 04:29:09;;;;;;;;;;;;;;;12.72;nan;100639.44;5016633;28;20016;-35
2022/12/22 04:31:35;;;;;;;;;;;;;;;12.71;nan;100635.97;5022235;28;19932;-35
2022/12/22 04:34:00;;;;;;;;;;;;;;;12.72;nan;100647.53;5024721;28;19917;-34
2022/12/22 04:36:26;;;;;;;;;;;;;;;12.70;nan;100642.41;5020467;28;19921;-34
2022/12/22 04:38:51;;;;;;;;;;;;;;;12.72;nan;100636.75;5022140;28;20366;-35
2022/12/22 04:41:16;;;;;;;;;;;;;;;12.73;nan;100648.31;5022081;28;19929;-34
2022/12/22 04:43:42;;;;;;;;;;;;;;;12.74;nan;100653.44;5026198;28;19924;-35
2022/12/22 04:46:07;;;;;;;;;;;;;;;12.77;nan;100650.25;5021231;28;20290;-35
2022/12/22 04:48:32;;;;;;;;;;;;;;;12.77;nan;100644.06;5019971;28;19960;-35
2022/12/22 04:50:58;;;;;;;;;;;;;;;12.76;nan;100640.56;5019442;28;19924;-35
2022/12/22 04:53:25;;;;;;;;;;;;;;;12.78;nan;100638.41;5020025;28;20010;-35
2022/12/22 04:56:00;;;;;;;;;;;;;;;12.78;nan;100637.59;5024370;28;20139;-35
2022/12/22 04:58:26;;;;;;;;;;;;;;;12.76;nan;100637.06;5019418;28;19947;-34
2022/12/22 05:00:51;;;;;;;;;;;;;;;12.77;nan;100639.50;5019137;28;20071;-35
2022/12/22 05:03:17;;;;;;;;;;;;;;;12.75;nan;100630.88;5021999;28;19921;-35
2022/12/22 05:05:42;;;;;;;;;;;;;;;12.73;nan;100622.25;5020248;28;19943;-35
2022/12/22 05:08:08;;;;;;;;;;;;;;;12.73;nan;100622.25;5022523;28;20470;-34
2022/12/22 05:10:33;;;;;;;;;;;;;;;12.71;nan;100625.22;5021906;28;19963;-35
2022/12/22 05:12:58;;;;;;;;;;;;;;;12.69;nan;100615.78;5024958;28;19948;-35
2022/12/22 05:15:29;;;;;;;;;;;;;;;12.66;nan;100602.88;5023679;28;20853;-35
2022/12/22 05:17:55;;;;;;;;;;;;;;;12.63;nan;100608.81;5021304;28;20302;-34
2022/12/22 05:20:21;;;;;;;;;;;;;;;12.60;nan;100601.28;5023649;28;19924;-35
2022/12/22 05:22:46;;;;;;;;;;;;;;;12.56;nan;100600.16;5021580;28;20081;-35
2022/12/22 05:25:11;;;;;;;;;;;;;;;12.56;nan;100594.78;5024266;28;20384;-35
2022/12/22 05:27:37;;;;;;;;;;;;;;;12.57;nan;100597.25;5020603;28;20401;-34
2022/12/22 05:30:03;;;;;;;;;;;;;;;12.58;nan;100588.09;5022793;28;19917;-35
2022/12/22 05:32:31;;;;;;;;;;;;;;;12.58;nan;100588.09;5023227;28;19960;-35
2022/12/22 05:34:56;;;;;;;;;;;;;;;12.54;nan;100578.13;5022465;28;20366;-35
2022/12/22 05:37:21;;;;;;;;;;;;;;;12.54;nan;100586.19;5023775;28;19924;-35
2022/12/22 05:39:47;;;;;;;;;;;;;;;12.55;nan;100577.84;5023444;28;19932;-35
2022/12/22 05:42:12;;;;;;;;;;;;;;;12.59;nan;100578.97;5023457;28;19921;-35
2022/12/22 05:44:37;;;;;;;;;;;;;;;12.62;nan;100572.25;5020864;28;19928;-35
2022/12/22 05:47:03;;;;;;;;;;;;;;;12.60;nan;100575.19;5022310;28;19924;-35
2022/12/22 05:49:28;;;;;;;;;;;;;;;12.61;nan;100571.44;5016565;28;20004;-35
2022/12/22 05:51:54;;;;;;;;;;;;;;;12.61;nan;100567.94;5023345;28;19917;-35
2022/12/22 05:54:20;;;;;;;;;;;;;;;12.61;nan;100573.31;5021286;28;19921;-35
2022/12/22 05:56:45;;;;;;;;;;;;;;;12.59;nan;100568.22;5019935;28;19957;-35
2022/12/22 05:59:10;;;;;;;;;;;;;;;12.61;nan;100571.44;5020164;28;19928;-35
2022/12/22 06:01:36;;;;;;;;;;;;;;;12.64;nan;100567.41;5020764;28;19925;-35
2022/12/22 06:04:01;;;;;;;;;;;;;;;12.63;nan;100550.47;5019068;28;19921;-35
2022/12/22 06:06:27;;;;;;;;;;;;;;;12.58;nan;100550.47;5023973;28;20001;-35
2022/12/22 06:08:52;;;;;;;;;;;;;;;12.54;nan;100545.88;5019159;28;19921;-35
2022/12/22 06:11:18;;;;;;;;;;;;;;;12.51;nan;100544.53;5019208;28;19929;-34
2022/12/22 06:13:44;;;;;;;;;;;;;;;12.53;nan;100537.00;5020670;28;19931;-35
2022/12/22 06:16:09;;;;;;;;;;;;;;;12.52;nan;100539.97;5018342;28;20698;-35
2022/12/22 06:18:34;;;;;;;;;;;;;;;12.48;nan;100534.31;5021871;28;20075;-35
2022/12/22 06:21:00;;;;;;;;;;;;;;;12.46;nan;100536.47;5019268;28;19944;-35
2022/12/22 06:23:25;;;;;;;;;;;;;;;12.50;nan;100531.34;5017997;28;19970;-35
2022/12/22 06:25:54;;;;;;;;;;;;;;;12.45;nan;100524.09;5020113;28;20390;-35
2022/12/22 06:28:20;;;;;;;;;;;;;;;12.42;nan;100527.31;5021051;28;19982;-35
2022/12/22 06:30:47;;;;;;;;;;;;;;;12.40;nan;100521.41;5017689;28;19925;-35
2022/12/22 06:33:12;;;;;;;;;;;;;;;12.34;nan;100523.25;5022230;28;20017;-35
2022/12/22 06:35:37;;;;;;;;;;;;;;;12.33;nan;100510.91;5023706;28;20339;-35
2022/12/22 06:38:03;;;;;;;;;;;;;;;12.29;nan;100509.81;5021638;28;20334;-35
2022/12/22 06:40:28;;;;;;;;;;;;;;;12.23;nan;100505.53;5022113;28;19925;-35
2022/12/22 06:43:09;;;;;;;;;;;;;;;12.22;nan;100503.09;5026707;28;19963;-35
2022/12/22 06:45:38;;;;;;;;;;;;;;;12.17;nan;100495.81;5025829;28;19943;-34
2022/12/22 06:48:04;;;;;;;;;;;;;;;12.17;nan;100501.19;5020168;28;20047;-35
2022/12/22 06:50:30;;;;;;;;;;;;;;;12.19;nan;100498.22;5022459;28;20144;-36
2022/12/22 06:52:55;;;;;;;;;;;;;;;12.20;nan;100489.91;5020125;28;19921;-35
2022/12/22 06:55:21;;;;;;;;;;;;;;;12.26;nan;100491.56;5024460;28;19986;-35
2022/12/22 06:57:46;;;;;;;;;;;;;;;12.24;nan;100491.00;5023272;28;19936;-35
2022/12/22 07:00:12;;;;;;;;;;;;;;;12.24;nan;100477.59;5028213;28;19929;-35
2022/12/22 07:02:37;;;;;;;;;;;;;;;12.23;nan;100480.53;5027228;28;20123;-35
2022/12/22 07:05:02;;;;;;;;;;;;;;;12.23;nan;100475.16;5026328;28;19955;-35
2022/12/22 07:07:28;;;;;;;;;;;;;;;12.20;nan;100478.34;5026787;28;19964;-35
2022/12/22 07:09:54;;;;;;;;;;;;;;;12.21;nan;100470.06;5025958;28;19968;-35
2022/12/22 07:12:20;;;;;;;;;;;;;;;12.22;nan;100470.88;5022316;28;19940;-36
2022/12/22 07:14:45;;;;;;;;;;;;;;;12.23;nan;100470.59;5023459;28;19971;-35
2022/12/22 07:17:10;;;;;;;;;;;;;;;12.18;nan;100470.56;5025864;28;19921;-36
2022/12/22 07:19:36;;;;;;;;;;;;;;;12.18;nan;100470.56;5023996;28;20438;-34
2022/12/22 07:22:02;;;;;;;;;;;;;;;12.21;nan;100470.06;5033050;28;20012;-35
2022/12/22 07:24:28;;;;;;;;;;;;;;;12.23;nan;100467.09;5026803;28;20016;-34
2022/12/22 07:26:54;;;;;;;;;;;;;;;12.24;nan;100464.16;5025079;28;19921;-35
2022/12/22 07:29:19;;;;;;;;;;;;;;;12.28;nan;100464.44;5029295;28;19925;-35
2022/12/22 07:31:45;;;;;;;;;;;;;;;12.29;nan;100466.03;5017719;28;19940;-35
2022/12/22 07:34:10;;;;;;;;;;;;;;;12.30;nan;100465.78;5027060;28;20374;-34
2022/12/22 07:36:36;;;;;;;;;;;;;;;12.30;nan;100465.78;5022499;28;19925;-34
2022/12/22 07:39:01;;;;;;;;;;;;;;;12.32;nan;100468.19;5023111;28;19913;-35
2022/12/22 07:44:10;;;;;;;;;;;;;;;12.32;nan;100468.19;5018505;28;19932;-35
2022/12/22 07:46:37;;;;;;;;;;;;;;;12.29;nan;100466.84;5027441;28;20379;-35
2022/12/22 07:51:48;;;;;;;;;;;;;;;12.29;nan;100468.72;5025053;28;20282;-35
2022/12/22 07:54:13;;;;;;;;;;;;;;;12.31;nan;100453.16;5022520;28;19917;-35
2022/12/22 07:56:39;;;;;;;;;;;;;;;12.29;nan;100452.59;5022985;28;20019;-35
2022/12/22 07:59:05;;;;;;;;;;;;;;;12.28;nan;100449.13;5026494;28;19924;-34
2022/12/22 08:01:30;;;;;;;;;;;;;;;12.29;nan;100444.53;5015130;28;20406;-35
2022/12/22 08:03:57;;;;;;;;;;;;;;;12.28;nan;100443.75;5018711;28;20407;-34
2022/12/22 08:06:23;;;;;;;;;;;;;;;12.30;nan;100446.16;5020385;28;19964;-34
2022/12/22 08:08:48;;;;;;;;;;;;;;;12.25;nan;100438.91;5021561;28;19917;-35
2022/12/22 08:11:13;;;;;;;;;;;;;;;12.29;nan;100434.59;5021776;28;19928;-35
2022/12/22 08:13:39;;;;;;;;;;;;;;;12.30;nan;100430.84;5041336;22;19933;-33
2022/12/22 08:16:05;;;;;;;;;;;;;;;12.31;nan;100429.78;5043465;28;19929;-33
2022/12/22 08:18:31;;;;;;;;;;;;;;;12.32;nan;100427.88;5034646;28;19921;-33
2022/12/22 08:20:56;;;;;;;;;;;;;;;12.36;nan;100434.34;5040936;28;19970;-33
2022/12/22 08:23:22;;;;;;;;;;;;;;;12.34;nan;100426.53;5032012;28;19917;-33
2022/12/22 08:25:50;;;;;;;;;;;;;;;12.33;nan;100419.56;5023419;28;19921;-33
2022/12/22 08:28:16;;;;;;;;;;;;;;;12.36;nan;100418.22;5025857;28;19960;-33
2022/12/22 08:30:42;;;;;;;;;;;;;;;12.36;nan;100419.03;5025015;28;19932;-33
2022/12/22 08:33:08;;;;;;;;;;;;;;;12.38;nan;100418.75;5025631;28;19921;-33
2022/12/22 08:35:33;;;;;;;;;;;;;;;12.39;nan;100409.66;5022865;28;19923;-33
2022/12/22 08:37:58;;;;;;;;;;;;;;;12.40;nan;100406.69;5026625;28;19917;-33
2022/12/22 08:40:26;;;;;;;;;;;;;;;12.39;nan;100401.59;5025604;28;19979;-33
2022/12/22 08:42:58;;;;;;;;;;;;;;;12.44;nan;100408.84;5024274;28;19976;-33
2022/12/22 08:45:24;;;;;;;;;;;;;;;12.47;nan;100403.72;5022852;28;20004;-33
2022/12/22 08:47:49;;;;;;;;;;;;;;;12.46;nan;100402.13;5021213;28;19921;-33
2022/12/22 08:50:15;;;;;;;;;;;;;;;12.45;nan;100400.50;5023538;28;19964;-33
2022/12/22 08:52:40;;;;;;;;;;;;;;;12.47;nan;100397.53;5020724;28;20547;-33
2022/12/22 08:55:06;;;;;;;;;;;;;;;12.47;nan;100397.53;5021486;28;19980;-33
2022/12/22 08:57:31;;;;;;;;;;;;;;;12.51;nan;100398.63;5023654;28;19921;-33
2022/12/22 08:59:57;;;;;;;;;;;;;;;12.50;nan;100397.00;5022597;28;19917;-33
2022/12/22 09:02:22;;;;;;;;;;;;;;;12.46;nan;100395.94;5012251;28;19917;-33
2022/12/22 09:04:48;;;;;;;;;;;;;;;12.47;nan;100389.47;5014255;28;19921;-33
2022/12/22 09:07:13;;;;;;;;;;;;;;;12.51;nan;100393.25;5012920;28;19968;-33
2022/12/22 09:09:38;;;;;;;;;;;;;;;12.46;nan;100383.31;5016871;28;19928;-33
2022/12/22 09:12:04;;;;;;;;;;;;;;;12.40;nan;100387.88;5020413;28;19975;-33
2022/12/22 09:14:29;;;;;;;;;;;;;;;12.44;nan;100379.28;5018789;28;20442;-33
2022/12/22 09:16:55;;;;;;;;;;;;;;;12.46;nan;100374.44;5013716;28;20405;-33
2022/12/22 09:19:20;;;;;;;;;;;;;;;12.50;nan;100380.88;5023218;28;19932;-33
2022/12/22 09:21:45;;;;;;;;;;;;;;;12.53;nan;100380.34;5013309;28;20028;-33
2022/12/22 09:24:11;;;;;;;;;;;;;;;12.55;nan;100380.88;5019460;28;20286;-33
2022/12/22 09:26:36;;;;;;;;;;;;;;;12.59;nan;100373.91;5019919;28;21837;-33
2022/12/22 09:29:02;;;;;;;;;;;;;;;12.60;nan;100375.50;5023889;28;20304;-33
2022/12/22 09:31:28;;;;;;;;;;;;;;;12.65;nan;100372.81;5022856;28;20400;-33
2022/12/22 09:33:54;;;;;;;;;;;;;;;12.68;nan;100366.88;5021898;28;20150;-33
2022/12/22 09:36:21;;;;;;;;;;;;;;;12.69;nan;100366.63;5021425;28;20067;-33
2022/12/22 09:38:46;;;;;;;;;;;;;;;12.73;nan;100369.56;5016281;28;19928;-33
2022/12/22 09:41:24;;;;;;;;;;;;;;;12.76;nan;100369.03;5016128;28;19925;-33
2022/12/22 09:43:49;;;;;;;;;;;;;;;12.79;nan;100365.81;5026883;28;20286;-33
2022/12/22 09:46:25;;;;;;;;;;;;;;;12.82;nan;100377.91;5026371;28;19917;-33
2022/12/22 09:48:52;;;;;;;;;;;;;;;12.85;nan;100378.16;5029468;28;19921;-33
2022/12/22 09:51:17;;;;;;;;;;;;;;;12.86;nan;100374.38;5024420;28;19917;-33
2022/12/22 09:53:44;;;;;;;;;;;;;;;12.92;nan;100367.91;5026827;28;19931;-33
2022/12/22 09:56:14;;;;;;;;;;;;;;;12.95;nan;100367.38;5025046;28;19975;-33
2022/12/22 09:58:40;;;;;;;;;;;;;;;12.96;nan;100362.81;5022095;28;20297;-33
2022/12/22 10:01:24;;;;;;;;;;;;;;;12.98;nan;100356.09;5024584;28;19921;-33
2022/12/22 10:03:52;;;;;;;;;;;;;;;13.00;nan;100353.91;5023996;28;20360;-33
2022/12/22 10:06:33;;;;;;;;;;;;;;;13.01;nan;100355.53;5024370;28;19947;-33
2022/12/22 10:09:02;;;;;;;;;;;;;;;13.03;nan;100341.81;5027462;28;19964;-33
2022/12/22 10:11:27;;;;;;;;;;;;;;;13.07;nan;100347.44;5020702;28;19944;-33
2022/12/22 10:13:52;;;;;;;;;;;;;;;13.06;nan;100340.44;5022557;28;20004;-33
2022/12/22 10:16:23;;;;;;;;;;;;;;;13.08;nan;100339.09;5029572;28;19917;-33
2022/12/22 10:19:15;;;;;;;;;;;;;;;13.11;nan;100332.38;5018614;28;20293;-33
2022/12/22 10:21:40;;;;;;;;;;;;;;;13.17;nan;100331.28;5022592;28;19980;-33
2022/12/22 10:24:16;;;;;;;;;;;;;;;13.24;nan;100329.13;5021404;28;19960;-33
2022/12/22 10:26:42;;;;;;;;;;;;;;;13.27;nan;100315.09;5026567;28;20396;-33
2022/12/22 10:29:12;;;;;;;;;;;;;;;13.28;nan;100312.16;5023828;28;19922;-33
2022/12/22 10:31:57;;;;;;;;;;;;;;;13.33;nan;100322.09;5020935;28;19925;-33
2022/12/22 10:34:23;;;;;;;;;;;;;;;13.38;nan;100311.28;5018663;28;19924;-34
2022/12/22 10:36:50;;;;;;;;;;;;;;;13.42;nan;100312.34;5019540;28;20086;-35
2022/12/22 10:39:26;;;;;;;;;;;;;;;13.45;nan;100306.41;5020920;28;20008;-34
2022/12/22 10:41:56;;;;;;;;;;;;;;;13.48;nan;100311.25;5025735;28;19948;-35
2022/12/22 10:44:24;;;;;;;;;;;;;;;13.47;nan;100304.28;5022343;28;20389;-34
2022/12/22 10:46:51;;;;;;;;;;;;;;;13.50;nan;100314.47;5024697;28;19925;-34
2022/12/22 10:49:19;;;;;;;;;;;;;;;13.53;nan;100308.53;5019811;28;19917;-34
2022/12/22 10:51:46;;;;;;;;;;;;;;;13.52;nan;100303.44;5022432;28;19917;-34
2022/12/22 10:54:31;;;;;;;;;;;;;;;13.50;nan;100300.22;5013384;28;19925;-35
2022/12/22 10:57:00;;;;;;;;;;;;;;;13.51;nan;100297.25;5018086;28;20299;-35
2022/12/22 10:59:25;;;;;;;;;;;;;;;13.56;nan;100297.19;5022758;28;19924;-34
2022/12/22 11:01:50;;;;;;;;;;;;;;;13.60;nan;100286.69;5018123;28;20406;-34
2022/12/22 11:04:20;;;;;;;;;;;;;;;13.63;nan;100290.69;5019456;28;20273;-34
2022/12/22 11:06:45;;;;;;;;;;;;;;;13.64;nan;100286.91;5023384;28;20760;-35
2022/12/22 11:09:11;;;;;;;;;;;;;;;13.66;nan;100287.47;5022881;28;19921;-35
2022/12/22 11:11:41;;;;;;;;;;;;;;;13.67;nan;100286.38;5022362;28;19932;-34
2022/12/22 11:14:13;;;;;;;;;;;;;;;13.67;nan;100289.88;5026710;28;19969;-35
2022/12/22 11:16:38;;;;;;;;;;;;;;;13.71;nan;100284.72;5015782;28;19925;-36
2022/12/22 11:19:27;;;;;;;;;;;;;;;13.73;nan;100279.88;5016369;28;20753;-35
2022/12/22 11:21:53;;;;;;;;;;;;;;;13.72;nan;100281.75;5024451;28;20366;-34
2022/12/22 11:24:27;;;;;;;;;;;;;;;13.73;nan;100269.91;5024776;28;19917;-36
2022/12/22 11:27:04;;;;;;;;;;;;;;;13.77;nan;100268.25;5026404;28;19917;-34
2022/12/22 11:29:33;;;;;;;;;;;;;;;13.82;nan;100280.88;5028595;28;20363;-35
2022/12/22 11:31:58;;;;;;;;;;;;;;;13.83;nan;100269.84;5025638;28;19952;-35
2022/12/22 11:34:26;;;;;;;;;;;;;;;13.87;nan;100264.69;5026024;28;19952;-34
2022/12/22 11:36:58;;;;;;;;;;;;;;;13.89;nan;100270.59;5027851;28;19932;-34
2022/12/22 11:39:34;;;;;;;;;;;;;;;13.90;nan;100258.72;5021427;28;19925;-35
2022/12/22 11:42:11;;;;;;;;;;;;;;;13.92;nan;100256.56;5022599;28;20403;-34
2022/12/22 11:44:46;;;;;;;;;;;;;;;13.92;nan;100261.94;5024121;28;19920;-35
2022/12/22 11:47:20;;;;;;;;;;;;;;;13.92;nan;100253.88;5019541;28;19925;-34
2022/12/22 11:50:12;;;;;;;;;;;;;;;13.90;nan;100251.47;5012340;28;19925;-35
2022/12/22 11:52:56;;;;;;;;;;;;;;;13.91;nan;100255.75;5002056;28;19979;-35
2022/12/22 11:55:30;;;;;;;;;;;;;;;13.93;nan;100246.59;5010238;28;19932;-35
2022/12/22 11:58:14;;;;;;;;;;;;;;;13.91;nan;100242.28;5010373;28;20310;-35
2022/12/22 12:00:42;;;;;;;;;;;;;;;13.92;nan;100237.72;5011330;28;19938;-35
2022/12/22 12:03:26;;;;;;;;;;;;;;;13.95;nan;100239.03;5009928;28;19927;-35
2022/12/22 12:06:17;;;;;;;;;;;;;;;13.97;nan;100234.97;5017947;28;19925;-34
2022/12/22 12:08:57;;;;;;;;;;;;;;;13.99;nan;100235.47;5024229;28;19927;-34
2022/12/22 12:11:31;;;;;;;;;;;;;;;14.00;nan;100228.22;5021171;28;20011;-35
2022/12/22 12:13:57;;;;;;;;;;;;;;;14.02;nan;100229.56;5025439;28;19924;-35
2022/12/22 12:16:22;;;;;;;;;;;;;;;14.04;nan;100226.56;5017352;28;19983;-36
2022/12/22 12:19:05;;;;;;;;;;;;;;;14.05;nan;100223.59;5026124;28;20353;-34
2022/12/22 12:21:34;;;;;;;;;;;;;;;14.06;nan;100230.59;5021845;28;19980;-34
2022/12/22 12:23:59;;;;;;;;;;;;;;;14.06;nan;100224.41;5023831;28;20307;-34
2022/12/22 12:26:40;;;;;;;;;;;;;;;14.08;nan;100216.84;5023243;28;19955;-35
2022/12/22 12:29:08;;;;;;;;;;;;;;;14.09;nan;100226.53;5021198;28;20000;-34
2022/12/22 12:31:37;;;;;;;;;;;;;;;14.09;nan;100221.94;5025205;28;19925;-35
2022/12/22 12:34:08;;;;;;;;;;;;;;;14.13;nan;100227.56;5026019;28;19983;-35
2022/12/22 12:36:36;;;;;;;;;;;;;;;14.14;nan;100219.19;5024663;28;20147;-35
2022/12/22 12:39:20;;;;;;;;;;;;;;;14.18;nan;100227.50;5020714;28;19925;-35
2022/12/22 12:41:57;;;;;;;;;;;;;;;14.17;nan;100224.00;5025985;28;19925;-35
2022/12/22 12:44:28;;;;;;;;;;;;;;;14.12;nan;100215.97;5026553;28;19935;-34
2022/12/22 12:47:05;;;;;;;;;;;;;;;14.10;nan;100211.97;5021802;28;20079;-35
2022/12/22 12:49:33;;;;;;;;;;;;;;;14.07;nan;100209.84;5023879;28;20028;-34
2022/12/22 12:52:02;;;;;;;;;;;;;;;14.04;nan;100211.22;5024210;28;19917;-35
2022/12/22 12:54:28;;;;;;;;;;;;;;;14.04;nan;100205.84;5028518;28;20011;-34
2022/12/22 12:56:54;;;;;;;;;;;;;;;14.04;nan;100208.53;5024243;28;19917;-34
2022/12/22 12:59:43;;;;;;;;;;;;;;;14.05;nan;100210.13;5026954;28;19917;-35
2022/12/22 13:02:27;;;;;;;;;;;;;;;14.05;nan;100201.25;5021523;28;19925;-34
2022/12/22 13:05:16;;;;;;;;;;;;;;;14.08;nan;100201.47;5022265;28;20519;-34
2022/12/22 13:08:01;;;;;;;;;;;;;;;14.10;nan;100193.91;5022006;28;20383;-34
2022/12/22 13:10:26;;;;;;;;;;;;;;;14.11;nan;100195.50;5027030;28;20406;-34
2022/12/22 13:12:53;;;;;;;;;;;;;;;14.08;nan;100190.69;5020944;28;19953;-35
2022/12/22 13:15:28;;;;;;;;;;;;;;;14.07;nan;100185.59;5024449;28;20398;-35
2022/12/22 13:17:54;;;;;;;;;;;;;;;14.04;nan;100192.38;5026428;28;20008;-35
2022/12/22 13:20:36;;;;;;;;;;;;;;;14.03;nan;100182.69;5024051;28;19932;-35
2022/12/22 13:23:02;;;;;;;;;;;;;;;14.02;nan;100185.66;5023388;28;19931;-34
2022/12/22 13:25:44;;;;;;;;;;;;;;;14.03;nan;100190.75;5026901;28;19921;-34
2022/12/22 13:28:20;;;;;;;;;;;;;;;14.05;nan;100195.84;5025658;28;19956;-35
2022/12/22 13:31:04;;;;;;;;;;;;;;;14.06;nan;100194.78;5024833;28;19964;-35
2022/12/22 13:33:31;;;;;;;;;;;;;;;14.07;nan;100199.88;5026195;28;19917;-34
2022/12/22 13:35:57;;;;;;;;;;;;;;;14.10;nan;100203.88;5022423;28;19956;-35
2022/12/22 13:38:26;;;;;;;;;;;;;;;14.11;nan;100210.88;5026253;28;19948;-35
2022/12/22 13:40:52;;;;;;;;;;;;;;;14.10;nan;100207.38;5020752;28;20039;-35
2022/12/22 13:43:19;;;;;;;;;;;;;;;14.12;nan;100201.69;5020432;28;20008;-34
2022/12/22 13:45:47;;;;;;;;;;;;;;;14.14;nan;100203.03;5024913;28;20345;-35
2022/12/22 13:48:14;;;;;;;;;;;;;;;14.14;nan;100210.31;5024603;28;19921;-34
2022/12/22 13:50:46;;;;;;;;;;;;;;;14.14;nan;100205.72;5024601;28;19924;-34
2022/12/22 13:53:15;;;;;;;;;;;;;;;14.12;nan;100202.50;5026461;28;20419;-35
2022/12/22 13:55:44;;;;;;;;;;;;;;;14.10;nan;100202.00;5020459;28;19931;-34
2022/12/22 13:58:28;;;;;;;;;;;;;;;14.10;nan;100202.00;5024394;28;20397;-34
2022/12/22 14:01:20;;;;;;;;;;;;;;;14.13;nan;100219.47;5024043;28;20278;-35
2022/12/22 14:03:56;;;;;;;;;;;;;;;14.16;nan;100218.91;5019432;28;21324;-34
2022/12/22 14:06:24;;;;;;;;;;;;;;;14.21;nan;100227.75;5026920;28;20351;-35
2022/12/22 14:08:49;;;;;;;;;;;;;;;14.23;nan;100226.66;5024583;28;20298;-34
2022/12/22 14:11:15;;;;;;;;;;;;;;;14.25;nan;100236.06;5028310;28;19921;-34
2022/12/22 14:13:41;;;;;;;;;;;;;;;14.29;nan;100236.28;5032840;22;19940;-33
2022/12/22 14:16:11;;;;;;;;;;;;;;;14.33;nan;100237.31;5016236;28;19929;-34
2022/12/22 14:18:37;;;;;;;;;;;;;;;14.35;nan;100244.03;5019877;28;19956;-34
2022/12/22 14:21:02;;;;;;;;;;;;;;;14.37;nan;100251.88;5020520;28;20389;-34
2022/12/22 14:23:31;;;;;;;;;;;;;;;14.38;nan;100253.47;5012469;28;19935;-34
2022/12/22 14:25:57;;;;;;;;;;;;;;;14.41;nan;100263.66;4992928;28;20409;-33
2022/12/22 14:28:42;;;;;;;;;;;;;;;14.41;nan;100264.47;4999557;28;19926;-33
2022/12/22 14:31:11;;;;;;;;;;;;;;;14.41;nan;100258.28;4996163;28;20452;-34
2022/12/22 14:33:37;;;;;;;;;;;;;;;14.42;nan;100276.88;4995062;28;19922;-34
2022/12/22 14:36:03;;;;;;;;;;;;;;;14.43;nan;100273.09;4993424;28;20285;-34
2022/12/22 14:38:36;;;;;;;;;;;;;;;14.45;nan;100273.63;4992980;28;20091;-34
2022/12/22 14:41:08;;;;;;;;;;;;;;;14.47;nan;100276.03;4997447;28;19925;-34
2022/12/22 14:43:33;;;;;;;;;;;;;;;14.46;nan;100269.84;4998124;28;19922;-34
2022/12/22 14:46:09;;;;;;;;;;;;;;;14.45;nan;100264.72;4995724;28;19984;-34
2022/12/22 14:48:44;;;;;;;;;;;;;;;14.44;nan;100266.63;4992507;28;19922;-34
2022/12/22 14:51:09;;;;;;;;;;;;;;;14.42;nan;100266.09;4994594;28;19928;-34
2022/12/22 14:53:38;;;;;;;;;;;;;;;14.42;nan;100267.97;5002381;28;20279;-34
2022/12/22 14:56:09;;;;;;;;;;;;;;;14.38;nan;100261.56;5003411;28;19947;-33
2022/12/22 14:58:37;;;;;;;;;;;;;;;14.30;nan;100273.72;4995075;28;19921;-33
2022/12/22 15:01:11;;;;;;;;;;;;;;;14.28;nan;100275.13;5001288;28;20393;-33
2022/12/22 15:03:38;;;;;;;;;;;;;;;14.25;nan;100281.06;4995211;28;20387;-34
2022/12/22 15:06:26;;;;;;;;;;;;;;;14.21;nan;100273.56;4994313;28;20398;-34
2022/12/22 15:09:07;;;;;;;;;;;;;;;14.17;nan;100274.38;4998049;28;19925;-33
2022/12/22 15:11:34;;;;;;;;;;;;;;;14.16;nan;100278.97;4996151;28;20291;-33
2022/12/22 15:14:00;;;;;;;;;;;;;;;14.18;nan;100290.31;4997509;28;19921;-33
2022/12/22 15:16:25;;;;;;;;;;;;;;;14.21;nan;100297.00;4994798;28;20314;-33
2022/12/22 15:18:51;;;;;;;;;;;;;;;14.25;nan;100299.94;5001218;28;19929;-33
2022/12/22 15:21:18;;;;;;;;;;;;;;;14.25;nan;100298.03;4992747;28;20183;-34
2022/12/22 15:23:43;;;;;;;;;;;;;;;14.26;nan;100290.75;4996674;28;19925;-34
2022/12/22 15:26:09;;;;;;;;;;;;;;;14.27;nan;100300.44;4999041;28;20004;-33
2022/12/22 15:28:34;;;;;;;;;;;;;;;14.27;nan;100301.25;4998166;28;19917;-33
2022/12/22 15:31:01;;;;;;;;;;;;;;;14.29;nan;100309.06;4995046;28;20050;-33
2022/12/22 15:33:26;;;;;;;;;;;;;;;14.31;nan;100306.88;4998013;28;20346;-34
2022/12/22 15:35:52;;;;;;;;;;;;;;;14.34;nan;100311.69;4999141;28;19928;-34
2022/12/22 15:38:21;;;;;;;;;;;;;;;14.34;nan;100309.81;4997623;28;20000;-33
2022/12/22 15:40:47;;;;;;;;;;;;;;;14.32;nan;100313.88;5001471;28;19926;-33
2022/12/22 15:43:13;;;;;;;;;;;;;;;14.32;nan;100303.91;5001855;28;20443;-34
2022/12/22 15:45:39;;;;;;;;;;;;;;;14.32;nan;100314.69;5000272;28;19948;-33
2022/12/22 15:48:06;;;;;;;;;;;;;;;14.31;nan;100302.28;5001789;28;19932;-34
2022/12/22 15:50:33;;;;;;;;;;;;;;;14.29;nan;100298.28;4998133;28;19921;-33
2022/12/22 15:52:59;;;;;;;;;;;;;;;14.26;nan;100294.25;4999171;28;19953;-34
2022/12/22 15:55:25;;;;;;;;;;;;;;;14.25;nan;100299.94;4999616;28;20413;-34
2022/12/22 15:57:56;;;;;;;;;;;;;;;14.23;nan;100305.59;4997148;28;19956;-33
2022/12/22 16:00:21;;;;;;;;;;;;;;;14.23;nan;100305.59;4996628;28;20306;-33
2022/12/22 16:02:47;;;;;;;;;;;;;;;14.23;nan;100315.59;5000897;28;19922;-33
2022/12/22 16:05:13;;;;;;;;;;;;;;;14.21;nan;100330.16;4996256;28;19921;-33
2022/12/22 16:07:39;;;;;;;;;;;;;;;14.21;nan;100330.16;4997103;28;19961;-34
2022/12/22 16:10:06;;;;;;;;;;;;;;;14.23;nan;100337.13;5001575;28;19972;-34
2022/12/22 16:12:31;;;;;;;;;;;;;;;14.24;nan;100338.75;4998745;28;20378;-33
2022/12/22 16:14:59;;;;;;;;;;;;;;;14.27;nan;100343.56;5000090;28;19933;-33
2022/12/22 16:17:26;;;;;;;;;;;;;;;14.28;nan;100345.16;4999588;28;19921;-34
2022/12/22 16:19:51;;;;;;;;;;;;;;;14.27;nan;100343.56;4996944;28;19931;-34
2022/12/22 16:22:19;;;;;;;;;;;;;;;14.27;nan;100341.66;5000429;28;19921;-34
2022/12/22 16:24:46;;;;;;;;;;;;;;;14.27;nan;100348.94;4994624;28;19926;-34
2022/12/22 16:27:12;;;;;;;;;;;;;;;14.28;nan;100340.59;4997736;28;20750;-34
2022/12/22 16:29:38;;;;;;;;;;;;;;;14.27;nan;100346.25;4996761;28;19928;-33
2022/12/22 16:32:21;;;;;;;;;;;;;;;14.28;nan;100345.16;4997525;28;19928;-34
2022/12/22 16:34:46;;;;;;;;;;;;;;;14.26;nan;100344.66;4993646;28;19921;-33
2022/12/22 16:37:11;;;;;;;;;;;;;;;14.23;nan;100348.72;4995594;28;20272;-34
2022/12/22 16:39:37;;;;;;;;;;;;;;;14.24;nan;100352.22;4999166;28;19922;-34
2022/12/22 16:42:02;;;;;;;;;;;;;;;14.28;nan;100361.34;5000860;28;19922;-33
2022/12/22 16:44:28;;;;;;;;;;;;;;;14.34;nan;100370.97;4994621;28;19937;-33